Aeroporto :
LOGIN :

Iscrizione | Disclaimer

   EN    FR    IT 

 










Sommario :    VFR   VFR Marginale   IFR   IFR Intensivo   IFR Molto Intensivo
Visibilità : 
Base nubi : 
>= 8 km
>= 3000ft
5 / 8 km
1000 / 3000 ft
1500m / 5 km
500 / 1000 ft
800 / 1500m
200 / 500 ft
< 800m
< 200 ft
Simboli :   Temporali  Nebbia  Neve Forte  Precipitazioni Forti  Vento > 20 kt
SIGMETs :   Varie  Temporali  Ghiacco  Turbolenza  Onda orograficha  Ceneri Vulcaniche







- Altitudine del aeroporto : 1302 ft
- Codice IATA : GNB
- Carte del aeroporto


LFLS - Grenoble / St. Geoirs

ULTIMO METAR :
  • 200900Z AUTO 21011KT CAVOK 26/14 Q1019 NOSIG

METARs OBSOLETI :
  • 200830Z AUTO 22010KT 180V250 CAVOK 25/13 Q1019 TEMPO 18015G25KT
  • 200800Z AUTO 23010KT CAVOK 25/12 Q1018 NOSIG
  • 200730Z AUTO 23007KT 190V260 CAVOK 24/12 Q1018 NOSIG
  • 200700Z AUTO 28004KT CAVOK 22/11 Q1017 BECMG 18012KT
  • 200630Z AUTO VRB02KT CAVOK 22/10 Q1017 BECMG 18012KT
  • 200600Z AUTO VRB02KT CAVOK 22/11 Q1017 BECMG 18012KT

TAF TAF LFLS
Valido dal 20 a 09 ore il 21 a 09 ore UTC


200800Z 2009/2109 22009KT CAVOK
TEMPO 2010/2019 20016KT
TEMPO 2015/2019 FEW090CB
PROB30
TEMPO 2015/2019 VRB15G25KT -TSRA BKN090CB
BECMG 2023/2103 VRB02KT
ATIS : +33 4 76 65 55 89
Nessun NOTAM noto per questo aeroporto.



MetMap, La meteo Aeronautica in un colpo d'occhio ! - Copyright ORBIFLY Dicembre 2007 - Disclaimer

ORBIFLY MET'MAP TEAM :

Programmazione e sviluppo : Alexandra Zaïnal
Concezione e sviluppo : Baudouin d'Aumeries
Co-Programmazione e sviluppo : Marc-Olivier Méhu
Supporto tecnico e logistico : Manuel Goepfert
Aiuto per la traduzione : Arnaldo La Scala

Contatto : metmap@orbifly.com




FONTI E CREDITI :

   NOAA